Time;durP1;ratioP1;P1;durP2;ratioP2;P2;SDS_P1;SDS_P2;PMS_P1;PMS_P2;Temp;Humidity;BMP_temperature;BMP_pressure;BME280_temperature;BME280_humidity;BME280_pressure;Samples;Min_cycle;Max_cycle;Signal;HPM_P1;HPM_P2
2022/02/22 00:01:11;;;;;;;0.75;0.75;;;8.50;99.90;;;;;;5030101;28;20109;-74
2022/02/22 00:03:37;;;;;;;0.00;0.00;;;8.50;99.90;;;;;;5014583;28;20033;-74
2022/02/22 00:06:06;;;;;;;1.50;1.40;;;8.50;99.90;;;;;;5013924;28;20033;-74
2022/02/22 00:08:32;;;;;;;5.50;2.17;;;8.50;99.90;;;;;;5014022;28;20026;-74
2022/02/22 00:10:58;;;;;;;3.40;2.10;;;8.40;99.90;;;;;;5046014;28;20056;-74
2022/02/22 00:13:25;;;;;;;9.13;3.20;;;8.40;99.90;;;;;;5014449;28;20140;-74
2022/02/22 00:15:54;;;;;;;0.00;0.00;;;8.40;99.90;;;;;;5014125;28;20029;-74
2022/02/22 00:18:20;;;;;;;3.72;1.25;;;8.40;99.90;;;;;;5013849;28;20429;-74
2022/02/22 00:20:47;;;;;;;5.85;2.50;;;8.40;99.90;;;;;;5014667;28;20049;-74
2022/02/22 00:23:13;;;;;;;1.33;1.23;;;8.30;99.90;;;;;;5014072;28;20030;-74
2022/02/22 00:25:39;;;;;;;0.65;0.65;;;8.20;99.90;;;;;;5014421;28;20121;-74
2022/02/22 00:28:05;;;;;;;2.40;2.22;;;8.30;99.90;;;;;;5013187;28;20106;-74
2022/02/22 00:30:31;;;;;;;7.65;3.55;;;8.30;99.90;;;;;;5014001;28;20101;-74
2022/02/22 00:32:58;;;;;;;2.35;1.98;;;8.20;99.90;;;;;;5026012;28;20032;-74
2022/02/22 00:35:23;;;;;;;0.80;0.80;;;8.30;99.90;;;;;;5033747;28;20021;-74
2022/02/22 00:37:50;;;;;;;0.88;0.60;;;8.30;99.90;;;;;;5033588;28;20543;-74
2022/02/22 00:40:16;;;;;;;2.55;1.85;;;8.20;99.90;;;;;;5032644;28;20041;-74
2022/02/22 00:42:42;;;;;;;0.50;0.50;;;8.20;99.90;;;;;;5032222;28;20026;-74
2022/02/22 00:45:09;;;;;;;0.45;0.45;;;8.20;99.90;;;;;;5033527;28;20075;-74
2022/02/22 00:47:35;;;;;;;0.10;0.10;;;8.10;99.90;;;;;;5033423;28;20075;-74
2022/02/22 00:50:01;;;;;;;5.53;4.35;;;8.10;99.90;;;;;;5033064;28;20038;-74
2022/02/22 00:52:28;;;;;;;6.30;2.45;;;8.20;99.90;;;;;;5033378;28;20488;-73
2022/02/22 00:54:54;;;;;;;1.48;1.38;;;8.10;99.90;;;;;;5033064;28;20041;-74
2022/02/22 00:57:20;;;;;;;1.55;1.45;;;8.10;99.90;;;;;;5033697;28;20032;-74
2022/02/22 00:59:46;;;;;;;6.03;1.48;;;8.10;99.90;;;;;;5033293;28;20481;-74
2022/02/22 01:02:12;;;;;;;0.25;0.20;;;8.10;99.90;;;;;;5032866;28;20036;-74
2022/02/22 01:04:38;;;;;;;5.75;1.75;;;8.10;99.90;;;;;;5037657;28;20029;-73
2022/02/22 01:07:04;;;;;;;0.52;0.52;;;8.10;99.90;;;;;;5033077;28;20037;-73
2022/02/22 01:09:30;;;;;;;7.68;1.15;;;8.00;99.90;;;;;;5032077;28;20022;-74
2022/02/22 01:11:55;;;;;;;2.28;1.00;;;8.00;99.90;;;;;;5031149;28;20044;-74
2022/02/22 01:14:21;;;;;;;0.30;0.30;;;8.00;99.90;;;;;;5032187;28;20029;-73
2022/02/22 01:16:47;;;;;;;0.35;0.35;;;8.00;99.90;;;;;;5032124;28;20552;-74
2022/02/22 01:19:13;;;;;;;5.97;2.92;;;8.00;99.90;;;;;;5032874;28;20389;-74
2022/02/22 01:21:39;;;;;;;1.00;1.00;;;8.00;99.90;;;;;;5033033;28;20135;-74
2022/02/22 01:24:05;;;;;;;4.20;2.00;;;8.10;99.90;;;;;;5032713;28;20044;-73
2022/02/22 01:26:33;;;;;;;0.00;0.00;;;8.20;99.90;;;;;;5032005;28;20040;-74
2022/02/22 01:28:59;;;;;;;0.65;0.38;;;8.20;99.90;;;;;;5032852;28;20035;-74
2022/02/22 01:31:27;;;;;;;16.17;1.45;;;8.20;99.90;;;;;;5032533;28;20037;-74
2022/02/22 01:33:57;;;;;;;3.75;1.45;;;8.20;99.90;;;;;;5032071;28;20366;-74
2022/02/22 01:36:23;;;;;;;14.68;3.67;;;8.10;99.90;;;;;;5032960;28;20392;-74
2022/02/22 01:38:51;;;;;;;38.40;1.45;;;8.00;99.90;;;;;;5028558;28;20113;-74
2022/02/22 01:41:18;;;;;;;2.92;2.00;;;8.00;99.90;;;;;;5013388;28;20030;-74
2022/02/22 01:43:43;;;;;;;4.50;1.70;;;7.90;99.90;;;;;;5012941;28;20045;-74
2022/02/22 01:46:09;;;;;;;1.42;0.28;;;7.90;99.90;;;;;;5014345;28;20034;-74
2022/02/22 01:48:35;;;;;;;3.50;0.77;;;7.80;99.90;;;;;;5019417;28;20029;-73
2022/02/22 01:51:00;;;;;;;8.48;1.55;;;7.80;99.90;;;;;;5031747;28;20582;-73
2022/02/22 01:53:26;;;;;;;3.50;2.83;;;7.80;99.90;;;;;;5032210;28;20044;-73
2022/02/22 01:55:52;;;;;;;0.25;0.25;;;7.80;99.90;;;;;;5032820;28;20370;-74
2022/02/22 01:58:17;;;;;;;23.35;0.90;;;7.80;99.90;;;;;;5032456;28;20022;-74
2022/02/22 02:00:46;;;;;;;1.25;0.77;;;7.80;99.90;;;;;;5032463;28;20500;-74
2022/02/22 02:03:15;;;;;;;3.55;2.25;;;7.80;99.90;;;;;;5032436;28;20051;-74
2022/02/22 02:05:41;;;;;;;1.45;0.90;;;7.80;99.90;;;;;;5032540;28;20025;-74
2022/02/22 02:08:06;;;;;;;13.95;3.30;;;7.80;99.90;;;;;;5031943;28;20030;-74
2022/02/22 02:10:32;;;;;;;7.70;2.42;;;7.90;99.90;;;;;;5032833;28;20017;-74
2022/02/22 02:12:58;;;;;;;0.00;0.00;;;8.10;99.90;;;;;;5032231;28;20036;-74
2022/02/22 02:15:23;;;;;;;1.45;1.10;;;8.30;99.90;;;;;;5031753;28;20022;-73
2022/02/22 02:17:49;;;;;;;1.95;0.70;;;8.40;99.90;;;;;;5031953;28;20041;-74
2022/02/22 02:20:14;;;;;;;1.80;1.20;;;8.50;99.90;;;;;;5032346;28;20026;-74
2022/02/22 02:22:43;;;;;;;6.78;2.20;;;8.60;99.90;;;;;;5032596;28;20033;-74
2022/02/22 02:25:10;;;;;;;0.50;0.47;;;8.70;99.90;;;;;;5031724;28;20499;-74
2022/02/22 02:27:37;;;;;;;1.38;1.02;;;8.80;99.90;;;;;;5032359;28;20045;-74
2022/02/22 02:30:07;;;;;;;0.22;0.10;;;8.90;99.90;;;;;;5031663;28;20037;-74
2022/02/22 02:32:32;;;;;;;3.15;1.45;;;8.80;99.90;;;;;;5031848;28;20503;-74
2022/02/22 02:34:58;;;;;;;1.08;0.73;;;8.90;99.90;;;;;;5031912;28;20018;-74
2022/02/22 02:37:24;;;;;;;1.75;0.65;;;8.90;99.90;;;;;;5032244;28;20571;-74
2022/02/22 02:39:50;;;;;;;0.00;0.00;;;8.80;99.90;;;;;;5020124;28;20045;-74
2022/02/22 02:42:18;;;;;;;0.93;0.80;;;8.70;99.90;;;;;;5012501;28;20060;-74
2022/02/22 02:44:45;;;;;;;0.52;0.47;;;8.70;99.90;;;;;;5014541;28;20532;-73
2022/02/22 02:47:11;;;;;;;0.82;0.57;;;8.70;99.90;;;;;;5012716;28;20032;-73
2022/02/22 02:49:37;;;;;;;3.72;1.92;;;8.80;99.90;;;;;;5026952;28;20021;-73
2022/02/22 02:52:04;;;;;;;0.00;0.00;;;8.80;99.90;;;;;;5033902;28;20543;-74
2022/02/22 02:54:29;;;;;;;1.60;1.08;;;8.80;99.90;;;;;;5035167;28;20032;-74
2022/02/22 02:56:55;;;;;;;3.83;0.98;;;8.70;99.90;;;;;;5035895;28;20026;-74
2022/02/22 02:59:21;;;;;;;0.68;0.68;;;8.70;99.90;;;;;;5035022;28;20029;-73
2022/02/22 03:01:46;;;;;;;0.00;0.00;;;8.70;99.90;;;;;;5035292;28;20091;-74
2022/02/22 03:04:13;;;;;;;7.80;2.38;;;8.70;99.90;;;;;;5034101;28;20037;-74
2022/02/22 03:06:39;;;;;;;0.57;0.57;;;8.70;99.90;;;;;;5035294;28;20029;-74
2022/02/22 03:09:05;;;;;;;26.77;1.85;;;8.70;99.90;;;;;;5035115;28;20025;-73
2022/02/22 03:11:31;;;;;;;1.10;0.98;;;8.60;99.90;;;;;;5035143;28;20113;-74
2022/02/22 03:13:57;;;;;;;1.23;1.08;;;8.60;99.90;;;;;;5035101;28;20496;-74
2022/02/22 03:16:23;;;;;;;4.72;1.02;;;8.60;99.90;;;;;;5034504;28;20100;-73
2022/02/22 03:18:49;;;;;;;7.97;0.93;;;8.60;99.90;;;;;;5035307;28;20108;-74
2022/02/22 03:21:15;;;;;;;1.95;0.77;;;8.60;99.90;;;;;;5035036;28;20025;-74
2022/02/22 03:23:41;;;;;;;10.13;3.40;;;8.50;99.90;;;;;;5034950;28;20033;-74
2022/02/22 03:26:06;;;;;;;7.03;1.95;;;8.50;99.90;;;;;;5035213;28;20362;-74
2022/02/22 03:28:32;;;;;;;0.68;0.68;;;8.50;99.90;;;;;;5034270;28;20114;-73
2022/02/22 03:31:00;;;;;;;0.50;0.50;;;8.50;99.90;;;;;;5034953;28;20455;-74
2022/02/22 03:33:26;;;;;;;0.00;0.00;;;8.60;99.90;;;;;;5039616;28;20108;-73
2022/02/22 03:35:52;;;;;;;3.85;0.55;;;8.60;99.90;;;;;;5034733;28;20515;-73
2022/02/22 03:38:18;;;;;;;0.40;0.40;;;8.70;99.90;;;;;;5033237;28;20120;-74
2022/02/22 03:40:44;;;;;;;0.00;0.00;;;8.70;99.90;;;;;;5034427;28;20029;-74
2022/02/22 03:43:10;;;;;;;9.15;1.85;;;8.80;99.90;;;;;;5034428;28;20049;-73
2022/02/22 03:45:36;;;;;;;1.73;1.63;;;8.90;99.90;;;;;;5034961;28;20049;-73
2022/02/22 03:48:02;;;;;;;0.65;0.65;;;8.90;99.90;;;;;;5034218;28;20455;-74
2022/02/22 03:50:28;;;;;;;4.28;0.52;;;8.90;99.90;;;;;;5034182;28;20064;-74
2022/02/22 03:52:54;;;;;;;8.10;3.28;;;9.00;99.90;;;;;;5033023;28;20033;-73
2022/02/22 03:55:22;;;;;;;0.45;0.45;;;9.00;99.90;;;;;;5033710;28;20072;-74
2022/02/22 03:57:47;;;;;;;0.00;0.00;;;9.10;99.90;;;;;;5034204;28;20024;-73
2022/02/22 04:00:16;;;;;;;4.18;2.65;;;9.10;99.90;;;;;;5034192;28;20480;-73
2022/02/22 04:02:42;;;;;;;0.32;0.13;;;9.20;99.90;;;;;;5034159;28;20053;-74
2022/02/22 04:05:09;;;;;;;0.20;0.20;;;9.20;99.90;;;;;;5034201;28;20554;-73
2022/02/22 04:07:38;;;;;;;0.93;0.93;;;9.20;99.90;;;;;;5034360;28;20101;-73
2022/02/22 04:10:05;;;;;;;0.65;0.65;;;9.20;99.90;;;;;;5033276;28;20060;-74
2022/02/22 04:12:32;;;;;;;0.75;0.35;;;9.20;99.90;;;;;;5033536;28;20021;-73
2022/02/22 04:14:57;;;;;;;14.35;3.00;;;9.20;99.90;;;;;;5034118;28;20101;-74
2022/02/22 04:17:23;;;;;;;8.07;2.85;;;9.20;99.90;;;;;;5033656;28;20076;-73
2022/02/22 04:19:49;;;;;;;14.30;0.63;;;9.20;99.90;;;;;;5033949;28;20053;-74
2022/02/22 04:22:16;;;;;;;1.88;0.85;;;9.20;99.90;;;;;;5034131;28;20508;-73
2022/02/22 04:24:42;;;;;;;0.55;0.45;;;9.30;99.90;;;;;;5035599;28;20540;-73
2022/02/22 04:27:08;;;;;;;0.88;0.88;;;9.30;99.90;;;;;;5034903;28;20064;-73
2022/02/22 04:29:33;;;;;;;1.08;0.75;;;9.30;99.90;;;;;;5033964;28;20029;-73
2022/02/22 04:32:01;;;;;;;0.20;0.10;;;9.40;99.90;;;;;;5033306;28;20040;-73
2022/02/22 04:34:27;;;;;;;3.30;1.88;;;9.40;99.90;;;;;;5033357;28;20021;-73
2022/02/22 04:36:52;;;;;;;12.73;4.03;;;9.50;99.90;;;;;;5033837;28;20430;-73
2022/02/22 04:39:18;;;;;;;1.98;1.88;;;9.50;99.90;;;;;;5033075;28;20350;-74
2022/02/22 04:41:44;;;;;;;3.13;2.17;;;9.50;99.90;;;;;;5033554;28;20029;-73
2022/02/22 04:44:09;;;;;;;4.05;2.38;;;9.50;99.90;;;;;;5033072;28;20089;-74
2022/02/22 04:46:35;;;;;;;10.73;2.90;;;9.60;99.90;;;;;;5033789;28;20116;-74
2022/02/22 04:49:01;;;;;;;0.98;0.95;;;9.60;99.90;;;;;;5033170;28;20048;-73
2022/02/22 04:51:27;;;;;;;0.00;0.00;;;9.60;99.90;;;;;;5033069;28;20029;-74
2022/02/22 04:53:52;;;;;;;0.00;0.00;;;9.60;99.90;;;;;;5032859;28;20026;-74
2022/02/22 04:56:18;;;;;;;5.82;1.45;;;9.60;99.90;;;;;;5033719;28;20505;-73
2022/02/22 04:58:44;;;;;;;2.53;1.48;;;9.70;99.90;;;;;;5033592;28;20037;-73
2022/02/22 05:01:09;;;;;;;0.30;0.30;;;9.70;99.90;;;;;;5033366;28;20052;-73
2022/02/22 05:03:35;;;;;;;0.68;0.68;;;9.70;99.90;;;;;;5033153;28;20125;-73
2022/02/22 05:06:01;;;;;;;25.55;0.70;;;9.70;99.90;;;;;;5033037;28;20036;-73
2022/02/22 05:08:26;;;;;;;2.08;1.50;;;9.70;99.90;;;;;;5032847;28;20480;-74
2022/02/22 05:10:53;;;;;;;1.55;1.05;;;9.70;99.90;;;;;;5033086;28;20032;-73
2022/02/22 05:13:19;;;;;;;0.85;0.73;;;9.70;99.90;;;;;;5032723;28;20018;-73
2022/02/22 05:15:44;;;;;;;2.53;0.90;;;9.80;99.90;;;;;;5031720;28;20378;-73
2022/02/22 05:18:10;;;;;;;1.38;0.90;;;9.80;99.90;;;;;;5037835;28;20090;-73
2022/02/22 05:20:36;;;;;;;0.52;0.52;;;9.80;99.90;;;;;;5033120;28;20033;-73
2022/02/22 05:23:01;;;;;;;7.00;1.48;;;9.80;99.90;;;;;;5033005;28;20025;-74
2022/02/22 05:25:27;;;;;;;0.68;0.15;;;9.80;99.90;;;;;;5033120;28;20416;-73
2022/02/22 05:27:53;;;;;;;2.90;1.20;;;9.90;99.90;;;;;;5032614;28;20057;-73
2022/02/22 05:30:19;;;;;;;3.92;2.35;;;9.90;99.90;;;;;;5032839;28;20115;-73
2022/02/22 05:32:45;;;;;;;0.68;0.57;;;9.90;99.90;;;;;;5032488;28;20061;-73
2022/02/22 05:35:13;;;;;;;1.70;1.58;;;9.90;99.90;;;;;;5032399;28;20033;-73
2022/02/22 05:37:39;;;;;;;0.65;0.50;;;9.90;99.90;;;;;;5032525;28;20033;-73
2022/02/22 05:40:07;;;;;;;0.10;0.10;;;10.00;99.90;;;;;;5021267;28;20022;-72
2022/02/22 05:42:33;;;;;;;6.93;1.60;;;10.00;99.90;;;;;;5012934;28;20032;-74
2022/02/22 05:44:59;;;;;;;6.72;1.23;;;10.00;99.90;;;;;;5012946;28;20056;-73
2022/02/22 05:47:26;;;;;;;2.58;1.10;;;10.00;99.90;;;;;;5013119;28;20080;-74
2022/02/22 05:49:52;;;;;;;0.00;0.00;;;10.00;99.90;;;;;;5029303;28;20049;-74
2022/02/22 05:52:17;;;;;;;0.38;0.38;;;10.00;99.90;;;;;;5032552;28;20081;-73
2022/02/22 05:54:43;;;;;;;1.80;1.25;;;10.00;99.90;;;;;;5031750;28;20021;-73
2022/02/22 05:57:10;;;;;;;0.57;0.28;;;10.00;99.90;;;;;;5032867;28;20029;-73
2022/02/22 05:59:36;;;;;;;3.40;1.58;;;10.00;99.90;;;;;;5031972;28;20045;-72
2022/02/22 06:02:02;;;;;;;6.60;2.65;;;10.00;99.90;;;;;;5032468;28;20033;-74
2022/02/22 06:04:27;;;;;;;9.45;0.32;;;10.00;99.90;;;;;;5032747;28;20385;-74
2022/02/22 06:06:53;;;;;;;0.85;0.75;;;10.00;99.90;;;;;;5032507;28;20030;-72
2022/02/22 06:09:19;;;;;;;0.43;0.20;;;10.10;99.90;;;;;;5030919;28;20451;-73
2022/02/22 06:11:45;;;;;;;0.00;0.00;;;10.10;99.90;;;;;;5019131;28;20108;-73
2022/02/22 06:14:11;;;;;;;14.15;2.58;;;10.10;99.90;;;;;;5029342;28;20171;-73
2022/02/22 06:16:37;;;;;;;0.43;0.40;;;10.10;99.90;;;;;;5032432;28;20063;-72
2022/02/22 06:19:03;;;;;;;10.63;1.77;;;10.10;99.90;;;;;;5032224;28;20567;-73
2022/02/22 06:21:28;;;;;;;0.98;0.45;;;10.10;99.90;;;;;;5032431;28;20488;-73
2022/02/22 06:23:54;;;;;;;0.40;0.40;;;10.10;99.90;;;;;;5031142;28;20021;-74
2022/02/22 06:26:20;;;;;;;1.10;0.75;;;10.10;99.90;;;;;;5033846;28;20033;-74
2022/02/22 06:28:46;;;;;;;0.30;0.30;;;10.10;99.90;;;;;;5036058;28;20029;-74
2022/02/22 06:31:12;;;;;;;3.53;1.95;;;10.10;99.90;;;;;;5035646;28;20030;-73
2022/02/22 06:33:38;;;;;;;6.88;1.48;;;10.20;99.90;;;;;;5035423;28;20072;-73
2022/02/22 06:36:04;;;;;;;1.15;0.90;;;10.10;99.90;;;;;;5034894;28;20029;-73
2022/02/22 06:38:30;;;;;;;0.10;0.10;;;10.10;99.90;;;;;;5035484;28;20053;-74
2022/02/22 06:40:56;;;;;;;7.95;1.95;;;10.10;99.90;;;;;;5017692;28;20045;-74
2022/02/22 06:43:22;;;;;;;1.85;0.93;;;10.10;99.90;;;;;;5029231;28;20033;-74
2022/02/22 06:45:48;;;;;;;0.65;0.65;;;10.10;99.90;;;;;;5035766;28;20022;-74
2022/02/22 06:48:14;;;;;;;1.63;0.73;;;10.10;99.90;;;;;;5035013;28;20025;-74
2022/02/22 06:50:44;;;;;;;0.40;0.40;;;10.10;99.90;;;;;;5035207;28;20025;-73
2022/02/22 06:53:11;;;;;;;2.70;1.60;;;10.10;99.90;;;;;;5034756;28;20032;-74
2022/02/22 06:55:40;;;;;;;7.25;2.38;;;10.10;99.90;;;;;;5035526;28;20041;-73
2022/02/22 06:58:09;;;;;;;0.70;0.68;;;10.10;99.90;;;;;;5035408;28;20075;-73
2022/02/22 07:00:37;;;;;;;0.38;0.38;;;10.10;99.90;;;;;;5035466;28;20511;-73
2022/02/22 07:03:04;;;;;;;3.50;1.15;;;10.20;99.90;;;;;;5034874;28;20428;-74
2022/02/22 07:05:33;;;;;;;3.50;2.35;;;10.20;99.90;;;;;;5034706;28;20093;-73
2022/02/22 07:07:59;;;;;;;6.72;3.35;;;10.20;99.90;;;;;;5028812;28;20037;-74
2022/02/22 07:10:26;;;;;;;0.05;0.05;;;10.20;99.90;;;;;;5026758;28;20021;-73
2022/02/22 07:12:52;;;;;;;4.47;2.20;;;10.20;99.90;;;;;;5033314;28;20025;-74
2022/02/22 07:15:18;;;;;;;0.25;0.25;;;10.30;99.90;;;;;;5033925;28;20028;-73
2022/02/22 07:17:45;;;;;;;4.28;1.10;;;10.30;99.90;;;;;;5035017;28;20033;-73
2022/02/22 07:20:12;;;;;;;16.98;3.25;;;10.30;99.90;;;;;;5033578;28;20068;-73
2022/02/22 07:22:39;;;;;;;0.85;0.68;;;10.30;99.90;;;;;;5033999;28;20053;-73
2022/02/22 07:25:06;;;;;;;23.05;1.75;;;10.40;99.90;;;;;;5032397;28;20391;-73
2022/02/22 07:27:31;;;;;;;10.93;1.75;;;10.40;99.90;;;;;;5027387;28;20034;-74
2022/02/22 07:29:57;;;;;;;1.30;1.20;;;10.40;99.90;;;;;;5028682;28;20055;-73
2022/02/22 07:32:23;;;;;;;0.25;0.25;;;10.40;99.90;;;;;;5032321;28;20069;-73
2022/02/22 07:34:48;;;;;;;0.15;0.15;;;10.40;99.90;;;;;;5032905;28;20022;-72
2022/02/22 07:37:14;;;;;;;0.00;0.00;;;10.40;99.90;;;;;;5033137;28;20026;-72
2022/02/22 07:39:40;;;;;;;0.40;0.40;;;10.50;99.90;;;;;;5025551;28;20026;-73
2022/02/22 07:42:06;;;;;;;4.53;2.28;;;10.50;99.90;;;;;;5016747;28;20061;-72
2022/02/22 07:44:31;;;;;;;1.20;1.10;;;10.50;99.90;;;;;;5032957;28;20052;-72
2022/02/22 07:46:57;;;;;;;22.80;4.28;;;10.50;99.90;;;;;;5031719;28;20025;-72
2022/02/22 07:49:22;;;;;;;0.32;0.32;;;10.60;99.90;;;;;;5031017;28;20440;-71
2022/02/22 07:51:48;;;;;;;7.03;2.08;;;10.60;99.90;;;;;;5031733;28;20388;-72
2022/02/22 07:54:14;;;;;;;2.30;0.35;;;10.60;99.90;;;;;;5030629;28;20029;-72
2022/02/22 07:56:41;;;;;;;1.13;1.02;;;10.60;99.90;;;;;;5032104;28;20446;-73
2022/02/22 07:59:06;;;;;;;2.35;1.45;;;10.60;99.90;;;;;;5026266;28;20473;-72
2022/02/22 08:01:32;;;;;;;3.63;1.95;;;10.60;99.90;;;;;;5023676;28;20018;-72
2022/02/22 08:03:58;;;;;;;1.20;0.75;;;10.60;99.90;;;;;;5031219;28;20026;-72
2022/02/22 08:06:25;;;;;;;5.72;3.55;;;10.70;99.90;;;;;;5032072;28;20029;-72
2022/02/22 08:08:51;;;;;;;0.35;0.35;;;10.70;99.90;;;;;;5029303;28;20040;-73
2022/02/22 08:11:16;;;;;;;0.45;0.45;;;10.70;99.90;;;;;;5024886;28;20025;-74
2022/02/22 08:13:42;;;;;;;0.00;0.00;;;10.70;99.90;;;;;;5024001;28;20488;-72
2022/02/22 08:16:08;;;;;;;5.45;0.47;;;10.70;99.90;;;;;;5021326;28;20033;-73
2022/02/22 08:18:34;;;;;;;0.10;0.10;;;10.70;99.90;;;;;;5029809;28;20033;-71
2022/02/22 08:20:59;;;;;;;0.88;0.35;;;10.80;99.90;;;;;;5019996;28;20500;-72
2022/02/22 08:23:27;;;;;;;1.17;1.10;;;10.80;99.90;;;;;;5026414;28;20098;-73
2022/02/22 08:25:52;;;;;;;4.45;2.17;;;10.90;99.90;;;;;;5031558;28;20021;-71
2022/02/22 08:28:18;;;;;;;0.38;0.22;;;10.90;99.90;;;;;;5030619;28;20030;-72
2022/02/22 08:30:44;;;;;;;10.20;0.55;;;11.00;99.90;;;;;;5012092;28;20029;-72
2022/02/22 08:33:10;;;;;;;20.40;4.50;;;11.00;99.90;;;;;;5026460;28;20041;-73
2022/02/22 08:35:36;;;;;;;0.65;0.60;;;11.00;99.90;;;;;;5030593;28;20017;-71
2022/02/22 08:38:02;;;;;;;35.20;1.00;;;11.00;99.90;;;;;;5030147;28;20029;-72
2022/02/22 08:40:28;;;;;;;6.38;2.00;;;11.10;99.90;;;;;;5016189;28;20034;-72
2022/02/22 08:42:54;;;;;;;18.83;2.65;;;11.10;99.90;;;;;;5020676;28;20112;-72
2022/02/22 08:45:20;;;;;;;0.77;0.77;;;11.20;99.90;;;;;;5021593;28;20120;-73
2022/02/22 08:47:45;;;;;;;0.65;0.55;;;11.20;99.90;;;;;;5030211;28;20037;-73
2022/02/22 08:50:11;;;;;;;3.20;1.55;;;11.20;99.90;;;;;;5028700;28;20045;-72
2022/02/22 08:52:37;;;;;;;0.17;0.17;;;11.20;99.90;;;;;;5030840;28;20033;-72
2022/02/22 08:55:03;;;;;;;0.30;0.30;;;11.20;99.90;;;;;;5029551;28;20029;-71
2022/02/22 08:57:28;;;;;;;0.10;0.10;;;11.20;99.90;;;;;;5026894;28;20036;-73
2022/02/22 08:59:54;;;;;;;1.45;1.02;;;11.20;99.90;;;;;;5029108;28;20547;-73
2022/02/22 09:02:20;;;;;;;0.00;0.00;;;11.20;99.90;;;;;;5030112;28;20033;-73
2022/02/22 09:04:46;;;;;;;0.35;0.35;;;11.20;99.90;;;;;;5026030;28;20396;-74
2022/02/22 09:07:11;;;;;;;1.95;0.57;;;11.20;99.90;;;;;;5041641;28;20038;-72
2022/02/22 09:09:37;;;;;;;2.92;1.45;;;11.20;99.90;;;;;;5030369;28;20025;-73
2022/02/22 09:12:03;;;;;;;2.72;1.42;;;11.20;99.90;;;;;;5030100;28;20031;-73
2022/02/22 09:14:29;;;;;;;3.75;1.55;;;11.30;99.90;;;;;;5017214;28;20022;-72
2022/02/22 09:16:54;;;;;;;0.47;0.47;;;11.20;99.90;;;;;;5024272;28;20131;-73
2022/02/22 09:19:20;;;;;;;0.00;0.00;;;11.20;99.90;;;;;;5028431;28;20079;-72
2022/02/22 09:21:46;;;;;;;0.47;0.47;;;11.30;99.90;;;;;;5023695;28;20045;-73
2022/02/22 09:24:11;;;;;;;0.60;0.60;;;11.30;99.90;;;;;;5028032;28;20036;-73
2022/02/22 09:26:37;;;;;;;3.13;0.85;;;11.30;99.90;;;;;;5018084;28;20076;-72
2022/02/22 09:29:03;;;;;;;4.53;1.45;;;11.40;99.90;;;;;;5010424;28;20497;-72
2022/02/22 09:31:28;;;;;;;0.28;0.28;;;11.40;99.90;;;;;;5015419;28;20076;-72
2022/02/22 09:33:54;;;;;;;0.65;0.65;;;11.40;99.90;;;;;;5031214;28;20072;-73
2022/02/22 09:36:20;;;;;;;0.47;0.47;;;11.40;99.90;;;;;;5026570;28;20025;-73
2022/02/22 09:38:46;;;;;;;37.30;5.00;;;11.50;99.90;;;;;;5027204;28;20025;-72
2022/02/22 09:41:11;;;;;;;2.08;1.75;;;11.50;99.90;;;;;;5022174;28;20034;-73
2022/02/22 09:43:37;;;;;;;0.00;0.00;;;11.50;99.90;;;;;;5018565;28;20052;-74
2022/02/22 09:46:09;;;;;;;0.35;0.35;;;11.60;99.90;;;;;;5019475;28;20021;-72
2022/02/22 09:48:35;;;;;;;1.85;0.88;;;11.60;99.90;;;;;;5030002;28;20021;-73
2022/02/22 09:51:02;;;;;;;3.63;3.13;;;11.50;99.90;;;;;;5029360;28;20025;-73
2022/02/22 09:53:28;;;;;;;4.38;1.45;;;11.60;99.90;;;;;;5026607;28;20411;-73
2022/02/22 09:55:55;;;;;;;0.75;0.75;;;11.60;99.90;;;;;;5030014;28;20387;-71
2022/02/22 09:58:21;;;;;;;10.88;2.65;;;11.60;99.90;;;;;;5027764;28;20021;-72
2022/02/22 10:00:58;;;;;;;1.00;1.00;;;11.60;99.90;;;;;;5031291;28;20420;-72
2022/02/22 10:03:23;;;;;;;1.65;0.95;;;11.60;99.90;;;;;;5032830;28;20052;-73
2022/02/22 10:05:54;;;;;;;6.43;1.85;;;11.60;99.90;;;;;;5033837;28;20046;-72
2022/02/22 10:08:32;;;;;;;4.68;2.10;;;11.70;99.90;;;;;;5028455;28;20025;-71
2022/02/22 10:11:06;;;;;;;17.38;1.05;;;11.60;99.90;;;;;;5029787;28;20064;-73
2022/02/22 10:13:32;;;;;;;0.10;0.10;;;11.70;99.90;;;;;;5030425;28;20041;-72
2022/02/22 10:15:58;;;;;;;6.13;2.25;;;11.80;99.90;;;;;;5033662;28;20028;-71
2022/02/22 10:18:25;;;;;;;0.38;0.38;;;11.70;99.90;;;;;;5033359;28;20025;-73
2022/02/22 10:20:51;;;;;;;15.55;3.90;;;11.80;99.90;;;;;;5022228;28;20033;-72
2022/02/22 10:23:27;;;;;;;13.63;1.77;;;11.80;99.90;;;;;;5023155;28;20033;-71
2022/02/22 10:25:58;;;;;;;9.95;1.08;;;11.80;99.90;;;;;;5030075;28;20116;-73
2022/02/22 10:28:24;;;;;;;1.23;0.93;;;12.00;99.90;;;;;;5018040;28;20025;-73
2022/02/22 10:30:51;;;;;;;1.23;0.55;;;12.00;99.90;;;;;;5033817;28;20039;-72
2022/02/22 10:33:25;;;;;;;1.02;0.93;;;12.10;99.90;;;;;;5033681;28;20113;-73
2022/02/22 10:35:58;;;;;;;2.13;1.48;;;12.20;99.90;;;;;;5031939;28;20106;-72
2022/02/22 10:38:26;;;;;;;1.38;0.55;;;12.30;99.90;;;;;;5031329;28;20048;-71
2022/02/22 10:41:16;;;;;;;0.17;0.17;;;12.40;99.90;;;;;;5034327;28;20025;-72
2022/02/22 10:43:50;;;;;;;0.00;0.00;;;12.30;99.90;;;;;;5032308;28;20060;-72
2022/02/22 10:46:22;;;;;;;5.18;0.28;;;12.30;99.90;;;;;;5035266;28;20029;-71
2022/02/22 10:48:48;;;;;;;0.85;0.85;;;12.30;99.90;;;;;;5032337;28;20068;-71
2022/02/22 10:51:15;;;;;;;0.05;0.05;;;12.40;99.90;;;;;;5029698;28;20025;-72
2022/02/22 10:53:46;;;;;;;0.10;0.10;;;12.30;99.90;;;;;;5032119;28;20032;-72
2022/02/22 10:56:14;;;;;;;4.22;1.77;;;12.30;99.90;;;;;;5019517;28;20029;-72
2022/02/22 10:58:44;;;;;;;0.10;0.10;;;12.40;99.90;;;;;;5025933;28;20072;-71
2022/02/22 11:01:14;;;;;;;8.68;0.80;;;12.30;99.90;;;;;;5030925;28;20040;-72
2022/02/22 11:03:41;;;;;;;1.27;1.15;;;12.20;99.90;;;;;;5031712;28;20017;-72
2022/02/22 11:06:09;;;;;;;0.77;0.77;;;12.30;99.90;;;;;;5032388;28;20040;-71
2022/02/22 11:08:38;;;;;;;0.13;0.13;;;12.20;99.90;;;;;;5032401;28;20009;-71
2022/02/22 11:11:08;;;;;;;0.77;0.77;;;12.40;99.90;;;;;;5033069;28;20392;-72
2022/02/22 11:13:34;;;;;;;0.38;0.38;;;12.50;99.90;;;;;;5028586;28;20021;-72
2022/02/22 11:16:14;;;;;;;0.15;0.15;;;12.60;99.90;;;;;;5024998;28;20423;-72
2022/02/22 11:18:44;;;;;;;0.55;0.55;;;12.90;99.90;;;;;;5032337;28;20042;-71
2022/02/22 11:21:11;;;;;;;0.55;0.55;;;13.10;99.90;;;;;;5021785;28;20430;-72
2022/02/22 11:23:37;;;;;;;1.17;0.20;;;13.30;99.90;;;;;;5030134;28;20041;-72
2022/02/22 11:26:09;;;;;;;0.08;0.08;;;13.00;99.90;;;;;;5028338;28;20498;-72
2022/02/22 11:28:48;;;;;;;0.03;0.03;;;12.90;99.90;;;;;;5029549;28;20022;-70
2022/02/22 11:31:18;;;;;;;2.60;1.45;;;12.60;99.90;;;;;;5030881;28;20028;-72
2022/02/22 11:33:49;;;;;;;7.43;0.22;;;12.50;99.90;;;;;;5029342;28;20021;-72
2022/02/22 11:36:48;;;;;;;1.00;0.65;;;12.50;99.90;;;;;;5031060;28;20060;-72
2022/02/22 11:39:22;;;;;;;0.00;0.00;;;12.80;99.90;;;;;;5022208;28;20460;-72
2022/02/22 11:41:47;;;;;;;1.02;0.73;;;12.90;99.90;;;;;;5031864;28;20030;-70
2022/02/22 11:44:21;;;;;;;12.50;0.90;;;12.70;99.90;;;;;;5033460;28;20036;-72
2022/02/22 11:46:51;;;;;;;0.77;0.40;;;12.50;99.90;;;;;;5031808;28;20481;-71
2022/02/22 11:49:33;;;;;;;0.10;0.10;;;12.60;99.90;;;;;;5031498;28;20116;-72
2022/02/22 11:52:13;;;;;;;0.55;0.55;;;12.70;99.90;;;;;;5031140;28;20040;-72
2022/02/22 11:54:39;;;;;;;0.30;0.30;;;12.90;99.90;;;;;;5012667;28;20041;-71
2022/02/22 11:57:10;;;;;;;6.93;2.03;;;12.70;99.90;;;;;;5012706;28;20030;-71
2022/02/22 11:59:53;;;;;;;0.70;0.70;;;12.80;99.90;;;;;;5024071;28;20021;-72
2022/02/22 12:02:27;;;;;;;6.05;1.50;;;12.80;99.90;;;;;;5022968;28;20041;-72
2022/02/22 12:04:53;;;;;;;1.27;0.65;;;13.00;99.90;;;;;;5020060;28;20037;-72
2022/02/22 12:07:36;;;;;;;3.20;1.05;;;13.00;99.90;;;;;;5022285;28;20545;-72
2022/02/22 12:10:07;;;;;;;1.75;0.25;;;12.90;99.90;;;;;;5024771;28;20099;-71
2022/02/22 12:12:33;;;;;;;8.18;1.85;;;12.90;99.90;;;;;;5026969;28;20025;-72
2022/02/22 12:14:59;;;;;;;10.02;2.35;;;13.00;99.90;;;;;;5030676;28;20104;-72
2022/02/22 12:17:26;;;;;;;0.80;0.63;;;12.90;99.90;;;;;;5030536;28;20544;-71
2022/02/22 12:19:54;;;;;;;3.40;1.38;;;13.00;99.90;;;;;;5029232;28;20017;-72
2022/02/22 12:22:22;;;;;;;0.40;0.40;;;13.10;99.90;;;;;;5040673;28;20405;-71
2022/02/22 12:25:06;;;;;;;24.10;0.55;;;13.10;99.90;;;;;;5016304;28;20129;-72
2022/02/22 12:27:34;;;;;;;0.25;0.25;;;12.80;99.90;;;;;;5029952;28;20029;-72
2022/02/22 12:30:02;;;;;;;0.28;0.28;;;12.80;99.90;;;;;;5028369;28;20087;-72
2022/02/22 12:32:36;;;;;;;1.30;1.20;;;13.00;99.90;;;;;;5030019;28;20033;-73
2022/02/22 12:35:06;;;;;;;1.95;0.68;;;13.00;99.90;;;;;;5031299;28;20151;-70
2022/02/22 12:37:42;;;;;;;0.88;0.47;;;13.40;99.90;;;;;;5031882;28;20036;-73
2022/02/22 12:40:12;;;;;;;2.45;1.50;;;13.00;99.90;;;;;;5021373;28;20025;-73
2022/02/22 12:42:38;;;;;;;1.15;0.52;;;13.10;99.90;;;;;;5024767;28;20493;-71
2022/02/22 12:45:17;;;;;;;1.70;1.60;;;13.30;99.90;;;;;;5014683;28;20030;-72
2022/02/22 12:47:43;;;;;;;0.38;0.38;;;13.20;99.90;;;;;;5030538;28;20551;-72
2022/02/22 12:50:11;;;;;;;3.40;1.98;;;13.20;99.90;;;;;;5028799;28;20061;-72